createdAt,value
2019-05-06T00:01:10.470Z,6.00
2019-05-06T00:03:13.886Z,5.90
2019-05-06T00:05:15.713Z,5.80
2019-05-06T00:07:17.507Z,5.80
2019-05-06T00:09:19.202Z,5.80
2019-05-06T00:11:21.029Z,5.80
2019-05-06T00:13:24.143Z,5.70
2019-05-06T00:15:26.293Z,5.80
2019-05-06T00:17:28.145Z,5.70
2019-05-06T00:19:29.845Z,5.70
2019-05-06T00:21:31.525Z,5.70
2019-05-06T00:23:41.646Z,5.70
2019-05-06T00:26:13.682Z,5.60
2019-05-06T00:28:39.881Z,5.60
2019-05-06T00:30:44.006Z,5.60
2019-05-06T00:32:45.697Z,5.60
2019-05-06T00:34:47.745Z,5.60
2019-05-06T00:36:49.546Z,5.60
2019-05-06T00:38:54.446Z,5.60
2019-05-06T00:40:59.302Z,5.50
2019-05-06T00:43:06.289Z,5.50
2019-05-06T00:45:08.798Z,5.50
2019-05-06T00:47:10.485Z,5.50
2019-05-06T00:49:14.300Z,5.40
2019-05-06T00:51:15.820Z,5.40
2019-05-06T00:53:19.920Z,5.40
2019-05-06T00:55:21.781Z,5.40
2019-05-06T00:57:43.779Z,5.40
2019-05-06T00:59:45.809Z,5.40
2019-05-06T01:01:47.949Z,5.40
2019-05-06T01:03:49.632Z,5.30
2019-05-06T01:05:53.992Z,5.30
2019-05-06T01:07:55.449Z,5.30
2019-05-06T01:09:57.254Z,5.30
2019-05-06T01:11:59.345Z,5.20
2019-05-06T01:14:05.662Z,5.30
2019-05-06T01:16:08.571Z,5.30
2019-05-06T01:18:10.389Z,5.20
2019-05-06T01:20:13.843Z,5.20
2019-05-06T01:22:15.874Z,5.20
2019-05-06T01:24:17.581Z,5.20
2019-05-06T01:26:19.312Z,5.20
2019-05-06T01:28:21.016Z,5.20
2019-05-06T01:30:24.333Z,5.20
2019-05-06T01:32:26.120Z,5.20
2019-05-06T01:34:27.849Z,5.20
2019-05-06T01:36:29.674Z,5.20
2019-05-06T01:38:36.613Z,5.30
2019-05-06T01:40:45.877Z,5.30
2019-05-06T01:42:55.387Z,5.30
2019-05-06T01:44:57.193Z,5.40
2019-05-06T01:46:59.109Z,5.40
2019-05-06T01:49:00.811Z,5.30
2019-05-06T01:51:03.523Z,5.30
2019-05-06T01:53:05.488Z,5.30
2019-05-06T01:55:07.489Z,5.20
2019-05-06T01:57:09.216Z,5.20
2019-05-06T01:59:10.986Z,5.20
2019-05-06T02:01:14.836Z,5.20
2019-05-06T02:03:16.629Z,5.20
2019-05-06T02:05:18.345Z,5.10
2019-05-06T02:07:20.021Z,5.10
2019-05-06T02:09:21.816Z,5.10
2019-05-06T02:11:24.097Z,5.10
2019-05-06T02:13:26.105Z,5.10
2019-05-06T02:15:27.804Z,5.10
2019-05-06T02:17:29.608Z,5.10
2019-05-06T02:19:31.505Z,5.00
2019-05-06T02:21:54.242Z,4.90
2019-05-06T02:24:00.247Z,4.90
2019-05-06T02:26:02.033Z,4.90
2019-05-06T02:28:04.015Z,4.90
2019-05-06T02:30:19.834Z,5.00
2019-05-06T02:32:32.091Z,5.00
2019-05-06T02:34:49.797Z,5.00
2019-05-06T02:37:00.262Z,5.00
2019-05-06T02:39:03.595Z,4.90
2019-05-06T02:41:05.705Z,4.90
2019-05-06T02:43:07.598Z,4.90
2019-05-06T02:45:12.580Z,4.80
2019-05-06T02:47:26.589Z,4.80
2019-05-06T02:49:34.917Z,4.70
2019-05-06T02:51:36.642Z,4.70
2019-05-06T02:53:38.449Z,4.70
2019-05-06T02:55:42.839Z,4.70
2019-05-06T02:57:44.234Z,4.70
2019-05-06T05:20:56.905Z,6.00
2019-05-06T05:22:58.860Z,6.00
2019-05-06T05:25:03.253Z,6.00
2019-05-06T05:27:05.329Z,6.10
2019-05-06T05:29:07.017Z,6.10
2019-05-06T05:31:09.161Z,6.10
2019-05-06T05:33:12.242Z,6.10
2019-05-06T05:35:14.381Z,6.20
2019-05-06T05:37:18.089Z,6.20
2019-05-06T05:39:21.816Z,6.30
2019-05-06T05:41:23.740Z,6.40
2019-05-06T05:43:32.644Z,6.50
2019-05-06T05:45:34.607Z,6.70
2019-05-06T05:47:36.496Z,6.70
2019-05-06T05:49:58.099Z,6.70
2019-05-06T05:51:59.929Z,6.70
2019-05-06T05:54:02.275Z,6.60
2019-05-06T05:56:04.285Z,6.60
2019-05-06T05:58:06.104Z,6.60
2019-05-06T06:00:08.426Z,6.70
2019-05-06T06:02:10.326Z,6.70
2019-05-06T06:04:13.011Z,6.80
2019-05-06T06:06:16.177Z,6.90
2019-05-06T06:08:18.095Z,6.90
2019-05-06T06:10:35.538Z,6.90
2019-05-06T06:12:37.459Z,6.90
2019-05-06T06:14:59.021Z,7.00
2019-05-06T06:17:18.473Z,7.10
2019-05-06T06:19:35.285Z,7.20
2019-05-06T06:21:52.386Z,7.20
2019-05-06T06:23:57.607Z,7.10
2019-05-06T06:25:59.517Z,7.10
2019-05-06T06:28:02.656Z,7.10
2019-05-06T06:30:04.761Z,7.10
2019-05-06T06:32:17.457Z,7.30
2019-05-06T06:34:38.913Z,7.30
2019-05-06T06:37:03.190Z,7.20
2019-05-06T06:39:13.233Z,7.20
2019-05-06T06:41:15.501Z,7.20
2019-05-06T06:43:22.985Z,7.20
2019-05-06T06:45:25.965Z,7.20
2019-05-06T06:47:27.897Z,7.20
2019-05-06T06:49:29.804Z,7.20
2019-05-06T06:51:33.069Z,7.00
2019-05-06T06:53:35.153Z,6.90
2019-05-06T06:55:38.309Z,6.90
2019-05-06T06:58:03.734Z,7.00
2019-05-06T07:00:19.344Z,7.00
2019-05-06T07:02:46.852Z,7.00
2019-05-06T07:05:03.624Z,7.10
2019-05-06T07:07:05.831Z,7.10
2019-05-06T07:09:07.851Z,7.40
2019-05-06T07:11:09.768Z,7.50
2019-05-06T07:13:13.233Z,7.70
2019-05-06T07:15:14.937Z,7.80
2019-05-06T07:17:16.641Z,7.80
2019-05-06T07:19:28.507Z,7.80
2019-05-06T07:21:37.692Z,7.90
2019-05-06T07:23:41.941Z,8.20
2019-05-06T07:25:43.449Z,8.40
2019-05-06T07:27:45.305Z,8.50
2019-05-06T07:29:48.686Z,8.60
2019-05-06T07:31:50.509Z,8.60
2019-05-06T07:33:52.407Z,8.60
2019-05-06T07:35:54.204Z,8.60
2019-05-06T07:37:55.921Z,8.60
2019-05-06T07:39:58.025Z,8.50
2019-05-06T07:42:02.337Z,8.60
2019-05-06T07:44:22.451Z,8.50
2019-05-06T07:46:33.123Z,8.50
2019-05-06T07:48:35.106Z,8.60
2019-05-06T07:50:36.948Z,8.70
2019-05-06T07:52:38.657Z,8.90
2019-05-06T07:54:42.411Z,9.00
2019-05-06T07:56:44.200Z,9.00
2019-05-06T07:58:45.926Z,8.70
2019-05-06T08:00:47.689Z,8.60
2019-05-06T08:02:49.485Z,8.70
2019-05-06T08:04:53.216Z,8.60
2019-05-06T08:06:54.886Z,8.60
2019-05-06T08:08:56.576Z,8.60
2019-05-06T08:10:58.261Z,8.50
2019-05-06T08:13:02.469Z,8.50
2019-05-06T08:15:05.808Z,8.50
2019-05-06T08:17:09.769Z,8.40
2019-05-06T08:19:11.982Z,8.20
2019-05-06T08:21:22.369Z,8.20
2019-05-06T08:23:36.358Z,8.30
2019-05-06T08:25:42.512Z,8.40
2019-05-06T08:27:44.517Z,8.50
2019-05-06T08:29:46.793Z,8.80
2019-05-06T08:31:48.509Z,9.00
2019-05-06T08:33:52.279Z,9.20
2019-05-06T08:36:07.516Z,9.30
2019-05-06T08:37:58.387Z,9.50
2019-05-06T08:40:00.334Z,9.70
2019-05-06T08:42:02.668Z,9.60
2019-05-06T08:44:05.103Z,9.50
2019-05-06T08:46:06.826Z,9.30
2019-05-06T08:48:08.633Z,9.20
2019-05-06T08:50:29.669Z,9.20
2019-05-06T08:52:52.370Z,9.10
2019-05-06T08:54:55.945Z,9.20
2019-05-06T08:56:57.675Z,9.30
2019-05-06T08:58:59.495Z,9.40
2019-05-06T09:01:07.301Z,9.50
2019-05-06T09:03:09.101Z,9.70
2019-05-06T09:05:12.236Z,10.00
2019-05-06T09:07:14.202Z,10.20
2019-05-06T09:09:15.998Z,10.40
2019-05-06T09:11:17.794Z,10.40
2019-05-06T09:13:19.654Z,10.60
2019-05-06T09:15:22.030Z,10.50
2019-05-06T09:17:24.073Z,10.60
2019-05-06T09:19:25.794Z,10.60
2019-05-06T09:21:27.612Z,10.50
2019-05-06T09:23:29.294Z,10.50
2019-05-06T09:25:32.270Z,10.40
2019-05-06T09:27:55.189Z,10.30
2019-05-06T09:30:07.822Z,10.20
2019-05-06T09:32:14.506Z,9.80
2019-05-06T09:34:43.114Z,9.30
2019-05-06T09:36:51.867Z,9.00
2019-05-06T09:38:52.879Z,9.00
2019-05-06T09:40:54.284Z,9.00
2019-05-06T09:42:56.014Z,9.00
2019-05-06T09:44:57.741Z,8.90
2019-05-06T09:46:59.445Z,8.90
2019-05-06T09:49:15.660Z,8.80
2019-05-06T09:51:17.361Z,8.80
2019-05-06T09:53:43.272Z,8.90
2019-05-06T09:56:03.674Z,9.00
2019-05-06T09:58:06.392Z,8.90
2019-05-06T10:00:09.093Z,8.90
2019-05-06T10:02:12.346Z,8.70
2019-05-06T10:04:14.590Z,8.50
2019-05-06T10:06:16.395Z,8.50
2019-05-06T10:08:18.251Z,8.60
2019-05-06T10:10:22.232Z,8.90
2019-05-06T10:12:23.732Z,9.30
2019-05-06T10:14:25.666Z,9.90
2019-05-06T10:16:27.453Z,10.30
2019-05-06T10:18:29.251Z,10.70
2019-05-06T10:20:32.937Z,10.70
2019-05-06T10:22:34.936Z,10.70
2019-05-06T10:24:36.740Z,10.70
2019-05-06T10:26:44.111Z,10.80
2019-05-06T10:28:52.412Z,10.60
2019-05-06T10:30:54.296Z,10.30
2019-05-06T10:32:57.945Z,10.20
2019-05-06T10:34:59.678Z,10.40
2019-05-06T10:37:18.978Z,10.80
2019-05-06T10:39:23.033Z,11.40
2019-05-06T10:41:29.833Z,11.90
2019-05-06T10:43:53.693Z,11.90
2019-05-06T10:45:55.481Z,12.20
2019-05-06T10:47:57.402Z,12.10
2019-05-06T10:49:59.127Z,11.60
2019-05-06T10:52:12.557Z,11.60
2019-05-06T10:54:14.224Z,12.30
2019-05-06T10:56:49.518Z,12.90
2019-05-06T10:58:38.445Z,12.60
2019-05-06T11:00:42.324Z,12.10
2019-05-06T11:02:52.370Z,12.00
2019-05-06T11:04:54.597Z,12.30
2019-05-06T11:06:56.285Z,12.30
2019-05-06T11:08:57.981Z,12.30
2019-05-06T11:11:14.481Z,12.30
2019-05-06T11:13:03.739Z,12.10
2019-05-06T11:15:05.861Z,11.90
2019-05-06T11:17:07.578Z,12.40
2019-05-06T11:19:09.361Z,12.80
2019-05-06T11:21:12.775Z,13.10
2019-05-06T11:23:14.577Z,13.00
2019-05-06T11:25:16.503Z,12.90
2019-05-06T11:27:31.065Z,12.40
2019-05-06T11:29:26.130Z,12.00
2019-05-06T11:31:33.375Z,12.10
2019-05-06T11:33:42.478Z,12.20
2019-05-06T11:35:59.658Z,12.70
2019-05-06T11:38:19.532Z,13.60
2019-05-06T11:40:23.481Z,14.20
2019-05-06T11:42:32.091Z,14.00
2019-05-06T11:44:28.598Z,13.50
2019-05-06T11:46:32.216Z,13.00
2019-05-06T11:48:33.976Z,13.20
2019-05-06T11:50:36.113Z,13.50
2019-05-06T11:52:37.913Z,13.50
2019-05-06T11:54:42.114Z,13.20
2019-05-06T11:56:50.985Z,13.10
2019-05-06T11:58:52.936Z,13.00
2019-05-06T12:00:54.061Z,13.50
2019-05-06T12:02:55.769Z,14.30
2019-05-06T12:04:57.508Z,14.60
2019-05-06T12:07:10.223Z,14.30
2019-05-06T12:09:07.106Z,13.80
2019-05-06T12:11:08.797Z,13.80
2019-05-06T12:13:12.218Z,13.30
2019-05-06T12:15:14.882Z,12.90
2019-05-06T12:17:16.632Z,12.50
2019-05-06T12:19:18.466Z,12.40
2019-05-06T12:21:20.171Z,12.50
2019-05-06T12:23:22.466Z,13.20
2019-05-06T12:25:24.259Z,14.00
2019-05-06T12:27:44.478Z,14.40
2019-05-06T12:29:46.259Z,14.60
2019-05-06T12:31:54.436Z,14.00
2019-05-06T12:33:56.157Z,14.20
2019-05-06T12:35:59.802Z,14.40
2019-05-06T12:38:06.800Z,14.40
2019-05-06T12:40:07.333Z,14.90
2019-05-06T12:42:23.189Z,15.00
2019-05-06T12:44:25.109Z,14.90
2019-05-06T12:46:35.854Z,15.20
2019-05-06T12:48:37.897Z,15.70
2019-05-06T12:50:39.587Z,15.90
2019-05-06T12:52:44.217Z,16.20
2019-05-06T12:54:44.977Z,16.60
2019-05-06T12:56:47.973Z,16.20
2019-05-06T12:58:49.714Z,15.30
2019-05-06T13:00:54.139Z,14.80
2019-05-06T13:02:55.127Z,14.20
2019-05-06T13:05:00.735Z,13.80
2019-05-06T13:07:02.919Z,13.30
2019-05-06T13:09:05.646Z,13.20
2019-05-06T13:11:07.737Z,13.10
2019-05-06T13:13:09.454Z,12.80
2019-05-06T13:15:13.230Z,12.90
2019-05-06T13:17:17.349Z,12.90
2019-05-06T13:19:19.281Z,12.80
2019-05-06T13:21:22.351Z,12.80
2019-05-06T13:23:35.048Z,12.80
2019-05-06T13:25:36.587Z,13.10
2019-05-06T13:27:38.578Z,14.20
2019-05-06T13:29:40.266Z,15.20
2019-05-06T13:31:43.470Z,15.10
2019-05-06T13:33:54.144Z,14.50
2019-05-06T13:35:54.356Z,14.10
2019-05-06T13:37:56.158Z,13.90
2019-05-06T13:39:57.982Z,13.70
2019-05-06T13:41:59.765Z,13.50
2019-05-06T13:44:09.209Z,13.30
2019-05-06T13:46:17.667Z,13.70
2019-05-06T13:48:25.337Z,13.50
2019-05-06T13:50:30.614Z,13.40
2019-05-06T13:52:37.155Z,13.30
2019-05-06T13:54:41.956Z,13.10
2019-05-06T13:56:43.242Z,12.90
2019-05-06T13:58:44.918Z,12.80
2019-05-06T14:00:47.027Z,12.70
2019-05-06T14:02:53.963Z,12.70
2019-05-06T14:04:55.760Z,12.50
2019-05-06T14:06:57.446Z,12.40
2019-05-06T14:08:59.437Z,12.40
2019-05-06T14:11:02.876Z,12.30
2019-05-06T14:13:04.741Z,12.10
2019-05-06T14:15:06.707Z,11.90
2019-05-06T14:17:08.384Z,12.00
2019-05-06T14:19:10.083Z,11.80
2019-05-06T14:21:12.412Z,11.90
2019-05-06T14:23:15.001Z,12.20
2019-05-06T14:25:29.765Z,12.30
2019-05-06T14:27:32.810Z,12.10
2019-05-06T14:29:42.909Z,11.90
2019-05-06T14:31:47.407Z,11.90
2019-05-06T14:33:49.106Z,12.10
2019-05-06T14:35:52.651Z,12.00
2019-05-06T14:37:54.822Z,11.80
2019-05-06T14:39:59.646Z,11.40
2019-05-06T14:42:02.414Z,11.70
2019-05-06T14:44:05.427Z,12.00
2019-05-06T14:46:08.488Z,12.00
2019-05-06T14:48:10.276Z,12.10
2019-05-06T14:50:14.391Z,11.90
2019-05-06T14:52:16.316Z,11.80
2019-05-06T14:54:18.002Z,11.90
2019-05-06T14:56:28.743Z,12.20
2019-05-06T14:58:32.112Z,12.50
2019-05-06T15:00:33.941Z,12.50
2019-05-06T15:02:35.761Z,12.50
2019-05-06T15:04:37.678Z,12.40
2019-05-06T15:06:39.372Z,12.40
2019-05-06T15:08:42.776Z,12.60
2019-05-06T15:10:44.702Z,12.70
2019-05-06T15:12:46.397Z,12.60
2019-05-06T15:14:48.101Z,12.70
2019-05-06T15:16:52.596Z,12.40
2019-05-06T15:18:53.773Z,12.10
2019-05-06T15:20:55.478Z,12.10
2019-05-06T15:22:57.555Z,12.20
2019-05-06T15:24:59.266Z,12.10
2019-05-06T15:27:02.692Z,12.10
2019-05-06T15:29:04.783Z,12.00
2019-05-06T15:31:16.590Z,11.90
2019-05-06T15:33:22.471Z,11.70
2019-05-06T15:35:42.741Z,11.60
2019-05-06T15:37:48.929Z,11.60
2019-05-06T15:39:52.220Z,11.60
2019-05-06T15:41:54.216Z,11.60
2019-05-06T15:43:56.157Z,11.60
2019-05-06T15:45:58.149Z,11.40
2019-05-06T15:47:59.858Z,11.40
2019-05-06T15:50:01.929Z,11.20
2019-05-06T15:52:03.842Z,11.20
2019-05-06T15:54:05.842Z,11.20
2019-05-06T15:56:07.645Z,11.20
2019-05-06T15:58:09.679Z,11.20
2019-05-06T16:00:15.228Z,11.20
2019-05-06T16:02:17.090Z,11.10
2019-05-06T16:04:18.782Z,11.00
2019-05-06T16:06:22.800Z,11.10
2019-05-06T16:08:24.733Z,11.10
2019-05-06T16:10:26.685Z,10.90
2019-05-06T16:12:28.585Z,10.90
2019-05-06T16:14:34.542Z,11.00
2019-05-06T16:16:33.905Z,11.10
2019-05-06T16:18:35.593Z,11.10
2019-05-06T16:20:37.345Z,11.10
2019-05-06T16:22:39.621Z,11.00
2019-05-06T16:24:49.046Z,10.60
2019-05-06T16:26:52.746Z,10.40
2019-05-06T16:28:54.630Z,10.40
2019-05-06T16:30:56.312Z,10.50
2019-05-06T16:32:58.085Z,10.50
2019-05-06T16:34:59.784Z,10.50
2019-05-06T16:37:01.985Z,10.60
2019-05-06T16:39:07.182Z,10.60
2019-05-06T16:41:12.956Z,10.70
2019-05-06T16:43:12.765Z,10.70
2019-05-06T16:45:18.426Z,10.50
2019-05-06T16:47:37.622Z,10.40
2019-05-06T16:49:39.423Z,10.30
2019-05-06T16:51:43.893Z,10.20
2019-05-06T16:53:44.960Z,10.20
2019-05-06T16:56:08.133Z,10.20
2019-05-06T16:58:12.249Z,10.10
2019-05-06T17:00:17.151Z,10.10
2019-05-06T17:02:26.474Z,10.00
2019-05-06T17:04:33.376Z,10.00
2019-05-06T17:06:37.326Z,9.90
2019-05-06T17:08:39.033Z,10.00
2019-05-06T17:10:43.112Z,9.90
2019-05-06T17:12:44.351Z,9.80
2019-05-06T17:14:46.170Z,9.90
2019-05-06T17:16:48.065Z,10.00
2019-05-06T17:18:49.783Z,9.80
2019-05-06T17:20:51.705Z,9.90
2019-05-06T17:22:53.494Z,9.90
2019-05-06T17:24:55.195Z,10.00
2019-05-06T17:26:57.019Z,10.10
2019-05-06T17:29:14.486Z,10.10
2019-05-06T17:31:25.969Z,10.10
2019-05-06T17:33:39.126Z,10.00
2019-05-06T17:35:42.870Z,9.90
2019-05-06T17:37:57.369Z,9.70
2019-05-06T17:40:09.833Z,9.50
2019-05-06T17:42:02.969Z,9.50
2019-05-06T17:44:05.565Z,9.40
2019-05-06T17:46:07.788Z,9.30
2019-05-06T17:48:27.654Z,9.40
2019-05-06T17:50:28.580Z,9.50
2019-05-06T17:52:30.353Z,9.50
2019-05-06T17:54:32.606Z,9.60
2019-05-06T17:56:34.338Z,9.60
2019-05-06T17:58:36.285Z,9.50
2019-05-06T18:00:38.080Z,9.40
2019-05-06T18:02:41.786Z,9.40
2019-05-06T18:04:43.637Z,9.40
2019-05-06T18:06:45.461Z,9.30
2019-05-06T18:08:47.185Z,9.20
2019-05-06T18:10:49.015Z,9.10
2019-05-06T18:12:53.069Z,9.20
2019-05-06T18:14:55.004Z,9.10
2019-05-06T18:16:57.029Z,9.10
2019-05-06T18:18:58.718Z,9.20
2019-05-06T18:21:02.553Z,9.20
2019-05-06T18:23:04.137Z,9.20
2019-05-06T18:25:06.425Z,9.20
2019-05-06T18:27:08.533Z,9.20
2019-05-06T18:29:12.357Z,9.10
2019-05-06T18:31:13.957Z,9.20
2019-05-06T18:33:15.664Z,9.20
2019-05-06T18:35:17.362Z,9.10
2019-05-06T18:37:19.092Z,9.00
2019-05-06T18:39:22.283Z,9.00
2019-05-06T18:41:24.340Z,9.00
2019-05-06T18:43:26.069Z,9.00
2019-05-06T18:45:27.953Z,9.00
2019-05-06T18:47:29.665Z,9.00
2019-05-06T18:49:33.697Z,9.00
2019-05-06T18:51:34.976Z,9.00
2019-05-06T18:53:36.770Z,9.00
2019-05-06T18:55:38.545Z,8.90
2019-05-06T18:57:40.435Z,8.80
2019-05-06T18:59:43.969Z,8.70
2019-05-06T19:01:46.069Z,8.80
2019-05-06T19:04:09.462Z,8.70
2019-05-06T19:06:11.974Z,8.70
2019-05-06T19:08:32.344Z,8.70
2019-05-06T19:10:33.763Z,8.60
2019-05-06T19:12:41.181Z,8.60
2019-05-06T19:14:43.060Z,8.60
2019-05-06T19:16:49.649Z,8.50
2019-05-06T19:18:48.509Z,8.60
2019-05-06T19:20:50.326Z,8.50
2019-05-06T19:22:53.537Z,8.40
2019-05-06T19:24:55.506Z,8.30
2019-05-06T19:26:57.302Z,8.40
2019-05-06T19:28:59.085Z,8.30
2019-05-06T19:31:02.967Z,8.20
2019-05-06T19:33:06.906Z,8.20
2019-05-06T19:35:08.701Z,8.10
2019-05-06T19:37:10.410Z,8.20
2019-05-06T19:39:12.700Z,8.10
2019-05-06T19:41:14.617Z,8.10
2019-05-06T19:43:16.349Z,8.00
2019-05-06T19:45:18.155Z,8.00
2019-05-06T19:47:19.845Z,8.00
2019-05-06T19:49:21.654Z,8.00
2019-05-06T19:51:25.265Z,8.00
2019-05-06T19:53:27.085Z,8.00
2019-05-06T19:55:28.831Z,8.00
2019-05-06T19:57:32.368Z,7.90
2019-05-06T19:59:34.380Z,7.80
2019-05-06T20:01:36.100Z,7.80
2019-05-06T20:03:37.811Z,7.70
2019-05-06T20:06:04.979Z,7.70
2019-05-06T20:08:26.352Z,7.70
2019-05-06T20:10:45.645Z,7.60
2019-05-06T20:13:00.964Z,7.60
2019-05-06T20:14:58.177Z,7.60
2019-05-06T20:16:59.902Z,7.60
2019-05-06T20:19:02.404Z,7.60
2019-05-06T20:21:04.525Z,7.70
2019-05-06T20:23:06.509Z,7.70
2019-05-06T20:25:08.328Z,7.70
2019-05-06T20:27:10.032Z,7.70
2019-05-06T20:29:11.744Z,7.80
2019-05-06T20:31:13.487Z,7.90
2019-05-06T20:33:15.485Z,7.80
2019-05-06T20:35:17.545Z,7.70
2019-05-06T20:37:19.241Z,7.70
2019-05-06T20:39:22.987Z,7.50
2019-05-06T20:41:24.827Z,7.50
2019-05-06T20:43:26.524Z,7.40
2019-05-06T20:45:28.361Z,7.50
2019-05-06T20:47:31.513Z,7.40
2019-05-06T20:49:33.669Z,7.40
2019-05-06T20:51:35.482Z,7.50
2019-05-06T20:53:37.191Z,7.50
2019-05-06T20:55:39.033Z,7.30
2019-05-06T20:57:42.145Z,7.20
2019-05-06T20:59:44.155Z,7.10
2019-05-06T21:01:45.885Z,6.90
2019-05-06T21:03:47.619Z,6.70
2019-05-06T21:05:49.333Z,6.50
2019-05-06T21:07:52.638Z,6.40
2019-05-06T21:09:54.879Z,6.30
2019-05-06T21:11:56.679Z,6.30
2019-05-06T21:13:58.428Z,6.20
2019-05-06T21:16:02.195Z,6.30
2019-05-06T21:18:04.515Z,6.20
2019-05-06T21:20:06.850Z,6.20
2019-05-06T21:22:08.766Z,6.20
2019-05-06T21:24:12.793Z,6.20
2019-05-06T21:26:14.293Z,6.10
2019-05-06T21:28:16.025Z,6.10
2019-05-06T21:30:18.297Z,6.10
2019-05-06T21:32:21.897Z,6.00
2019-05-06T21:34:23.645Z,6.00
2019-05-06T21:36:25.366Z,6.00
2019-05-06T21:38:27.434Z,6.00
2019-05-06T21:40:29.230Z,6.10
2019-05-06T21:42:32.542Z,6.10
2019-05-06T21:44:34.494Z,6.10
2019-05-06T21:46:36.335Z,6.00
2019-05-06T21:48:38.125Z,6.00
2019-05-06T21:50:39.825Z,6.00
2019-05-06T21:52:43.082Z,5.90
2019-05-06T21:54:45.049Z,5.90
2019-05-06T21:56:46.760Z,5.80
2019-05-06T21:58:48.471Z,5.80
2019-05-06T22:00:56.176Z,5.80
2019-05-06T22:02:57.915Z,5.80
2019-05-06T22:05:02.485Z,5.80
2019-05-06T22:07:03.493Z,5.80
2019-05-06T22:09:07.147Z,5.90
2019-05-06T22:11:08.962Z,5.90
2019-05-06T22:13:14.241Z,5.80
2019-05-06T22:15:14.473Z,5.80
2019-05-06T22:17:16.209Z,5.80
2019-05-06T22:19:17.905Z,5.80
2019-05-06T22:21:24.278Z,5.80
2019-05-06T22:23:27.999Z,5.80
2019-05-06T22:25:29.727Z,5.80
2019-05-06T22:27:31.492Z,5.80
2019-05-06T22:29:33.224Z,5.70
2019-05-06T22:31:34.977Z,5.70
2019-05-06T22:33:36.746Z,5.60
2019-05-06T22:35:38.465Z,5.60
2019-05-06T22:37:42.240Z,5.60
2019-05-06T22:39:43.904Z,5.60
2019-05-06T22:41:45.966Z,5.50
2019-05-06T22:43:47.765Z,5.50
2019-05-06T22:45:49.477Z,5.50
2019-05-06T22:47:53.084Z,5.40
2019-05-06T22:49:54.780Z,5.40
2019-05-06T22:51:56.868Z,5.40
2019-05-06T22:53:58.572Z,5.40
2019-05-06T22:56:02.970Z,5.40
2019-05-06T22:58:04.680Z,5.40
2019-05-06T23:00:09.051Z,5.30
2019-05-06T23:02:28.349Z,5.30
2019-05-06T23:04:32.423Z,5.30
2019-05-06T23:06:34.321Z,5.30
2019-05-06T23:08:36.021Z,5.20
2019-05-06T23:10:37.729Z,5.20
2019-05-06T23:12:39.645Z,5.20
2019-05-06T23:14:42.159Z,5.10
2019-05-06T23:16:44.080Z,5.10
2019-05-06T23:18:45.885Z,5.10
2019-05-06T23:20:47.716Z,5.10
2019-05-06T23:22:49.406Z,5.10
2019-05-06T23:24:52.255Z,5.10
2019-05-06T23:26:54.919Z,5.10
2019-05-06T23:28:56.849Z,5.10
2019-05-06T23:30:58.597Z,5.00
2019-05-06T23:33:00.324Z,5.00
2019-05-06T23:35:03.243Z,5.00
2019-05-06T23:37:23.307Z,5.00
2019-05-06T23:40:04.645Z,5.00
2019-05-06T23:42:43.580Z,5.00
2019-05-06T23:45:22.855Z,5.00
2019-05-06T23:48:02.569Z,4.90
2019-05-06T23:50:42.797Z,4.90
2019-05-06T23:53:22.930Z,4.90
2019-05-06T23:56:02.794Z,4.90
2019-05-06T23:58:04.262Z,4.80
